Time;durP1;ratioP1;P1;durP2;ratioP2;P2;SDS_P1;SDS_P2;PMS_P1;PMS_P2;Temp;Humidity;BMP_temperature;BMP_pressure;BME280_temperature;BME280_humidity;BME280_pressure;Samples;Min_cycle;Max_cycle;Signal;HPM_P1;HPM_P2
2021/12/18 00:01:31;;;;;;;15.85;7.07;;;7.80;99.90;;;;;;5068578;28;20056;-65
2021/12/18 00:03:57;;;;;;;9.57;5.80;;;7.90;99.90;;;;;;5069436;28;20029;-65
2021/12/18 00:06:27;;;;;;;13.70;6.30;;;7.80;99.90;;;;;;5069813;28;20366;-65
2021/12/18 00:08:53;;;;;;;10.35;5.55;;;7.90;99.90;;;;;;5068189;28;20041;-65
2021/12/18 00:11:19;;;;;;;21.48;6.90;;;7.80;99.90;;;;;;5059266;28;20045;-66
2021/12/18 00:13:44;;;;;;;10.60;5.73;;;7.80;99.90;;;;;;5066029;28;20044;-65
2021/12/18 00:16:10;;;;;;;13.67;6.17;;;7.80;99.90;;;;;;5069265;28;20133;-65
2021/12/18 00:18:35;;;;;;;10.80;5.60;;;7.80;99.90;;;;;;5068503;28;20043;-65
2021/12/18 00:21:02;;;;;;;13.80;7.17;;;7.80;99.90;;;;;;5066490;28;20417;-65
2021/12/18 00:23:28;;;;;;;11.90;6.25;;;7.80;99.90;;;;;;5069165;28;20037;-65
2021/12/18 00:25:54;;;;;;;12.10;5.40;;;7.90;99.90;;;;;;5068791;28;20382;-65
2021/12/18 00:28:20;;;;;;;9.63;4.97;;;7.80;99.90;;;;;;5068217;28;20033;-65
2021/12/18 00:30:45;;;;;;;6.15;3.60;;;7.80;99.90;;;;;;5052226;28;20060;-65
2021/12/18 00:33:12;;;;;;;4.60;3.23;;;7.80;99.90;;;;;;5070327;28;20037;-65
2021/12/18 00:35:37;;;;;;;;;;;7.80;99.90;;;;;;5074457;28;20040;-66
2021/12/18 00:38:04;;;;;;;6.32;3.42;;;7.80;99.90;;;;;;5067882;28;19999;-65
2021/12/18 00:40:43;;;;;;;8.52;4.38;;;7.80;99.90;;;;;;5068176;28;20485;-65
2021/12/18 00:43:23;;;;;;;9.05;4.70;;;7.80;99.90;;;;;;5067798;28;20048;-65
2021/12/18 00:45:49;;;;;;;8.52;4.47;;;7.80;99.90;;;;;;5069810;28;20098;-65
2021/12/18 00:48:15;;;;;;;7.38;3.80;;;7.80;99.90;;;;;;5060198;28;20370;-65
2021/12/18 00:50:41;;;;;;;6.80;4.55;;;7.80;99.90;;;;;;5056560;28;20408;-65
2021/12/18 00:53:06;;;;;;;6.50;3.60;;;7.80;99.90;;;;;;5077285;28;20038;-66
2021/12/18 00:55:34;;;;;;;8.87;4.60;;;7.70;99.90;;;;;;5078933;28;20093;-65
2021/12/18 00:57:59;;;;;;;14.70;4.88;;;7.70;99.90;;;;;;5070071;28;20055;-65
2021/12/18 01:00:26;;;;;;;6.60;4.20;;;7.70;99.90;;;;;;5070182;28;20044;-65
2021/12/18 01:02:55;;;;;;;;;;;7.70;99.90;;;;;;5074064;28;20033;-65
2021/12/18 01:05:21;;;;;;;4.35;2.67;;;7.70;99.90;;;;;;5076822;28;19969;-65
2021/12/18 01:07:47;;;;;;;6.25;2.97;;;7.70;99.90;;;;;;5069625;28;20412;-65
2021/12/18 01:12:44;;;;;;;5.88;3.15;;;7.60;99.90;;;;;;5069249;28;20055;-65
2021/12/18 01:15:19;;;;;;;6.80;3.85;;;7.60;99.90;;;;;;5070000;28;20451;-65
2021/12/18 01:23:15;;;;;;;4.55;3.05;;;7.60;99.90;;;;;;5048772;28;20044;-65
2021/12/18 01:25:40;;;;;;;4.97;3.73;;;7.60;99.90;;;;;;5051109;28;20037;-65
2021/12/18 01:28:06;;;;;;;6.43;3.58;;;7.60;99.90;;;;;;5089029;28;20028;-65
2021/12/18 01:30:32;;;;;;;7.97;3.30;;;7.60;99.90;;;;;;5093793;28;20090;-65
2021/12/18 01:32:58;;;;;;;5.55;3.08;;;7.60;99.90;;;;;;5073746;28;20033;-65
2021/12/18 01:35:24;;;;;;;8.02;4.13;;;7.60;99.90;;;;;;5072988;28;20068;-65
2021/12/18 01:37:50;;;;;;;7.30;3.60;;;7.60;99.90;;;;;;5074657;28;20040;-65
2021/12/18 01:40:17;;;;;;;5.80;3.30;;;7.60;99.90;;;;;;5072824;28;20535;-65
2021/12/18 01:45:26;;;;;;;4.40;2.30;;;7.50;99.90;;;;;;5072976;28;20049;-65
2021/12/18 01:53:20;;;;;;;3.25;1.85;;;7.50;99.90;;;;;;5091492;28;20043;-65
2021/12/18 01:55:49;;;;;;;1.88;1.30;;;7.60;99.90;;;;;;5092674;28;20093;-65
2021/12/18 01:58:20;;;;;;;2.75;1.77;;;7.50;99.90;;;;;;5072438;28;20040;-65
2021/12/18 02:00:46;;;;;;;3.00;1.67;;;7.50;99.90;;;;;;5070901;28;20049;-65
2021/12/18 02:03:11;;;;;;;3.08;1.42;;;7.50;99.90;;;;;;5071913;28;20494;-65
2021/12/18 02:05:38;;;;;;;3.53;1.40;;;7.50;99.90;;;;;;5072361;28;20117;-65
2021/12/18 02:08:04;;;;;;;4.93;1.63;;;7.50;99.90;;;;;;5087781;28;20500;-65
2021/12/18 02:10:41;;;;;;;2.47;1.70;;;7.50;99.90;;;;;;5092684;28;20094;-65
2021/12/18 02:13:24;;;;;;;5.03;2.50;;;7.50;99.90;;;;;;5088114;28;20047;-65
2021/12/18 02:21:22;;;;;;;5.32;1.67;;;7.50;99.90;;;;;;5070887;28;20045;-65
2021/12/18 02:23:48;;;;;;;2.65;1.92;;;7.50;99.90;;;;;;5071030;28;20136;-65
2021/12/18 02:26:13;;;;;;;2.33;1.30;;;7.50;99.90;;;;;;5071207;28;20536;-65
2021/12/18 02:28:43;;;;;;;4.32;1.42;;;7.50;99.90;;;;;;5089902;28;20119;-65
2021/12/18 02:31:09;;;;;;;3.88;1.52;;;7.50;99.90;;;;;;5070726;28;20051;-65
2021/12/18 02:33:34;;;;;;;2.50;1.60;;;7.40;99.90;;;;;;5088471;28;20419;-65
2021/12/18 02:36:03;;;;;;;1.93;1.00;;;7.40;99.90;;;;;;5089991;28;20047;-65
2021/12/18 02:43:53;;;;;;;5.05;1.25;;;7.30;99.90;;;;;;5089996;28;20044;-65
2021/12/18 02:46:19;;;;;;;4.07;1.33;;;7.30;99.90;;;;;;5092192;28;20040;-65
2021/12/18 02:48:47;;;;;;;2.33;1.25;;;7.30;99.90;;;;;;5073257;28;20417;-65
2021/12/18 02:51:14;;;;;;;2.00;1.13;;;7.30;99.90;;;;;;5070606;28;20122;-65
2021/12/18 02:53:45;;;;;;;1.58;0.98;;;7.30;99.90;;;;;;5072427;28;20058;-65
2021/12/18 02:56:12;;;;;;;1.67;0.85;;;7.30;99.90;;;;;;5071374;28;20370;-65
2021/12/18 02:58:38;;;;;;;;;;;7.30;99.90;;;;;;5087387;28;20047;-65
2021/12/18 03:01:05;;;;;;;2.50;0.90;;;7.30;99.90;;;;;;5091639;28;19982;-65
2021/12/18 03:03:34;;;;;;;1.15;0.70;;;7.30;99.90;;;;;;5088314;28;20044;-65
2021/12/18 03:22:43;;;;;;;4.10;1.02;;;7.20;99.90;;;;;;5090242;28;20416;-65
2021/12/18 03:27:27;;;;;;;2.15;0.80;;;7.20;99.90;;;;;;5053776;28;20059;-65
2021/12/18 03:29:52;;;;;;;;;;;7.20;99.90;;;;;;5093996;28;20313;-65
2021/12/18 03:32:19;;;;;;;1.85;1.08;;;7.10;99.90;;;;;;5082811;28;20451;-65
2021/12/18 03:34:44;;;;;;;3.63;1.33;;;7.10;99.90;;;;;;5071782;28;20362;-65
2021/12/18 03:37:10;;;;;;;4.75;1.20;;;7.10;99.90;;;;;;5069680;28;20044;-65
2021/12/18 03:39:36;;;;;;;2.85;1.10;;;7.10;99.90;;;;;;5089630;28;20065;-65
2021/12/18 03:42:06;;;;;;;2.03;0.85;;;7.10;99.90;;;;;;5084901;28;20114;-65
2021/12/18 03:44:33;;;;;;;2.85;0.63;;;7.00;99.90;;;;;;5075710;28;20048;-65
2021/12/18 03:46:59;;;;;;;1.88;0.77;;;7.00;99.90;;;;;;5069025;28;20047;-65
2021/12/18 03:49:25;;;;;;;1.52;0.98;;;7.00;99.90;;;;;;5086443;28;20062;-65
2021/12/18 03:51:51;;;;;;;3.45;0.70;;;7.00;99.90;;;;;;5090483;28;20524;-65
2021/12/18 03:54:17;;;;;;;1.20;0.40;;;6.90;99.90;;;;;;5088825;28;20039;-65
2021/12/18 03:56:43;;;;;;;1.73;0.50;;;6.90;99.90;;;;;;5090644;28;20314;-65
2021/12/18 03:59:09;;;;;;;1.20;0.60;;;6.90;99.90;;;;;;5077699;28;20451;-65
2021/12/18 04:01:34;;;;;;;1.40;0.60;;;6.90;99.90;;;;;;5069862;28;20048;-65
2021/12/18 04:04:00;;;;;;;4.10;0.73;;;6.90;99.90;;;;;;5071187;28;20573;-65
2021/12/18 04:06:26;;;;;;;1.43;0.70;;;6.90;99.90;;;;;;5070196;28;20353;-65
2021/12/18 04:08:54;;;;;;;1.80;0.70;;;6.90;99.90;;;;;;5079281;28;20119;-65
2021/12/18 04:11:21;;;;;;;1.45;0.70;;;6.90;99.90;;;;;;5089054;28;20131;-65
2021/12/18 04:13:47;;;;;;;2.75;0.80;;;6.90;99.90;;;;;;5088271;28;20533;-65
2021/12/18 04:16:13;;;;;;;;;;;6.90;99.90;;;;;;5075463;28;20541;-65
2021/12/18 04:18:40;;;;;;;1.80;0.80;;;6.90;99.90;;;;;;5076798;28;19919;-65
2021/12/18 04:21:06;;;;;;;1.48;0.40;;;6.90;99.90;;;;;;5089113;28;20144;-65
2021/12/18 04:23:32;;;;;;;1.02;0.47;;;6.90;99.90;;;;;;5088248;28;20081;-65
2021/12/18 04:25:57;;;;;;;0.90;0.40;;;6.90;99.90;;;;;;5089127;28;20063;-65
2021/12/18 04:28:24;;;;;;;0.63;0.37;;;6.90;99.90;;;;;;5086880;28;20032;-65
2021/12/18 04:30:50;;;;;;;2.88;0.38;;;6.90;99.90;;;;;;5070315;28;20146;-65
2021/12/18 04:33:15;;;;;;;1.02;0.40;;;6.90;99.90;;;;;;5069994;28;20524;-65
2021/12/18 04:35:41;;;;;;;1.30;0.40;;;6.90;99.90;;;;;;5050505;28;20041;-65
2021/12/18 04:38:06;;;;;;;0.90;0.50;;;6.90;99.90;;;;;;5050101;28;20776;-65
2021/12/18 04:40:34;;;;;;;3.37;0.60;;;6.80;99.90;;;;;;5089918;28;20036;-65
2021/12/18 04:42:59;;;;;;;1.85;0.50;;;6.80;99.90;;;;;;5090079;28;20146;-65
2021/12/18 04:45:25;;;;;;;1.37;0.40;;;6.80;99.90;;;;;;5084195;28;20450;-65
2021/12/18 04:47:51;;;;;;;3.93;0.40;;;6.80;99.90;;;;;;5070080;28;20117;-65
2021/12/18 04:50:16;;;;;;;1.17;0.40;;;6.70;99.90;;;;;;5086257;28;20283;-65
2021/12/18 04:52:42;;;;;;;0.93;0.60;;;6.70;99.90;;;;;;5089879;28;20412;-65
2021/12/18 04:55:08;;;;;;;1.83;0.60;;;6.70;99.90;;;;;;5074749;28;20496;-65
2021/12/18 04:57:34;;;;;;;4.70;0.75;;;6.70;99.90;;;;;;5086370;28;20040;-65
2021/12/18 05:00:00;;;;;;;5.05;0.50;;;6.70;99.90;;;;;;5087502;28;20046;-65
2021/12/18 05:02:36;;;;;;;2.10;0.80;;;6.60;99.90;;;;;;5089820;28;20071;-65
2021/12/18 05:05:04;;;;;;;2.97;0.40;;;6.60;99.90;;;;;;5080368;28;20105;-65
2021/12/18 05:07:30;;;;;;;2.63;0.70;;;6.60;99.90;;;;;;5086675;28;20032;-65
2021/12/18 05:09:56;;;;;;;5.18;0.88;;;6.60;99.90;;;;;;5081108;28;20052;-65
2021/12/18 05:12:22;;;;;;;2.40;0.93;;;6.50;99.90;;;;;;5072747;28;20041;-65
2021/12/18 05:14:48;;;;;;;3.30;0.63;;;6.60;99.90;;;;;;5083070;28;20452;-65
2021/12/18 05:17:13;;;;;;;1.80;0.50;;;6.50;99.90;;;;;;5084841;28;20032;-65
2021/12/18 05:19:39;;;;;;;1.77;0.60;;;6.60;99.90;;;;;;5080901;28;20043;-65
2021/12/18 05:22:05;;;;;;;4.27;1.13;;;6.50;99.90;;;;;;5093177;28;20410;-66
2021/12/18 05:24:30;;;;;;;3.50;0.60;;;6.60;99.90;;;;;;5085738;28;20542;-65
2021/12/18 05:26:56;;;;;;;6.60;1.00;;;6.60;99.90;;;;;;5075712;28;20035;-66
2021/12/18 05:29:22;;;;;;;2.42;0.50;;;6.60;99.90;;;;;;5089421;28;20282;-65
2021/12/18 05:31:48;;;;;;;2.67;0.45;;;6.60;99.90;;;;;;5073092;28;20452;-66
2021/12/18 05:34:21;;;;;;;3.20;0.98;;;6.60;99.90;;;;;;5072901;28;20472;-65
2021/12/18 05:37:14;;;;;;;5.72;0.90;;;6.60;99.90;;;;;;5073134;28;20044;-66
2021/12/18 05:39:36;;;;;;;7.32;1.00;;;6.60;99.90;;;;;;5061810;28;20127;-65
2021/12/18 05:42:03;;;;;;;2.27;0.40;;;6.60;99.90;;;;;;5078244;28;20123;-65
2021/12/18 05:44:28;;;;;;;4.95;1.48;;;6.60;99.90;;;;;;5075213;28;20028;-65
2021/12/18 05:46:54;;;;;;;2.27;0.80;;;6.60;99.90;;;;;;5093418;28;20578;-65
2021/12/18 05:49:20;;;;;;;5.63;0.73;;;6.60;99.90;;;;;;5091914;28;20039;-65
2021/12/18 05:51:46;;;;;;;2.38;0.82;;;6.60;99.90;;;;;;5078759;28;20032;-65
2021/12/18 05:54:13;;;;;;;2.25;0.60;;;6.60;99.90;;;;;;5092954;28;20473;-66
2021/12/18 05:56:38;;;;;;;;;;;6.60;99.90;;;;;;5073387;28;20045;-65
2021/12/18 05:59:04;;;;;;;6.03;1.23;;;6.60;99.90;;;;;;5073162;28;20369;-65
2021/12/18 06:01:30;;;;;;;2.38;0.60;;;6.60;99.90;;;;;;5087693;28;20047;-65
2021/12/18 06:03:56;;;;;;;1.85;0.88;;;6.60;99.90;;;;;;5072335;28;20110;-65
2021/12/18 06:06:22;;;;;;;2.88;0.95;;;6.60;99.90;;;;;;5069783;28;20381;-65
2021/12/18 06:08:49;;;;;;;3.85;0.95;;;6.60;99.90;;;;;;5091585;28;20101;-65
2021/12/18 06:11:16;;;;;;;1.77;0.88;;;6.60;99.90;;;;;;5077049;28;20087;-65
2021/12/18 06:13:44;;;;;;;5.22;1.50;;;6.60;99.90;;;;;;5071953;28;20403;-65
2021/12/18 06:16:10;;;;;;;10.45;1.55;;;6.60;99.90;;;;;;5087942;28;20039;-66
2021/12/18 06:18:37;;;;;;;7.13;1.23;;;6.60;99.90;;;;;;5091475;28;20032;-65
2021/12/18 06:21:03;;;;;;;4.45;1.35;;;6.60;99.90;;;;;;5080819;28;20041;-65
2021/12/18 06:23:29;;;;;;;4.55;1.38;;;6.50;99.90;;;;;;5072067;28;20044;-65
2021/12/18 06:25:56;;;;;;;3.30;0.75;;;6.60;99.90;;;;;;5073355;28;20032;-65
2021/12/18 06:28:21;;;;;;;4.07;0.65;;;6.60;99.90;;;;;;5072124;28;20040;-65
2021/12/18 06:30:47;;;;;;;3.83;0.60;;;6.60;99.90;;;;;;5078556;28;20032;-65
2021/12/18 06:33:12;;;;;;;1.97;0.67;;;6.50;99.90;;;;;;5079733;28;20282;-65
2021/12/18 06:35:38;;;;;;;6.57;1.17;;;6.50;99.90;;;;;;5095283;28;20031;-65
2021/12/18 06:38:04;;;;;;;11.30;1.17;;;6.50;99.90;;;;;;5092083;28;20040;-65
2021/12/18 06:40:30;;;;;;;10.90;2.17;;;6.50;99.90;;;;;;5087225;28;20036;-65
2021/12/18 06:42:55;;;;;;;7.40;1.47;;;6.50;99.90;;;;;;5071565;28;20048;-65
2021/12/18 06:45:21;;;;;;;8.60;1.67;;;6.50;99.90;;;;;;5072705;28;20033;-65
2021/12/18 06:47:46;;;;;;;8.57;1.03;;;6.50;99.90;;;;;;5090635;28;20852;-65
2021/12/18 06:50:12;;;;;;;5.67;1.40;;;6.50;99.90;;;;;;5090515;28;20116;-65
2021/12/18 06:52:38;;;;;;;8.23;1.40;;;6.50;99.90;;;;;;5071582;28;20040;-65
2021/12/18 06:55:04;;;;;;;3.87;1.17;;;6.50;99.90;;;;;;5071689;28;20036;-65
2021/12/18 06:57:30;;;;;;;;;;;6.50;99.90;;;;;;5073147;28;20072;-65
2021/12/18 06:59:55;;;;;;;4.10;1.17;;;6.50;99.90;;;;;;5071407;28;19959;-65
2021/12/18 07:02:21;;;;;;;6.23;1.40;;;6.50;99.90;;;;;;5087515;28;20432;-65
2021/12/18 07:04:47;;;;;;;10.50;1.77;;;6.50;99.90;;;;;;5090150;28;20039;-65
2021/12/18 07:07:14;;;;;;;4.45;1.50;;;6.50;99.90;;;;;;5088978;28;20036;-65
2021/12/18 07:09:40;;;;;;;4.40;1.50;;;6.50;99.90;;;;;;5092270;28;20115;-65
2021/12/18 07:12:08;;;;;;;8.52;2.03;;;6.50;99.90;;;;;;5078284;28;20465;-65
2021/12/18 07:14:34;;;;;;;6.97;1.85;;;6.50;99.90;;;;;;5071096;28;20079;-65
2021/12/18 07:16:59;;;;;;;5.33;1.37;;;6.50;99.90;;;;;;5072052;28;20509;-65
2021/12/18 07:19:26;;;;;;;4.20;1.07;;;6.40;99.90;;;;;;5070988;28;20256;-65
2021/12/18 07:21:51;;;;;;;;;;;6.40;99.90;;;;;;5080762;28;20123;-65
2021/12/18 07:24:17;;;;;;;4.45;1.15;;;6.40;99.90;;;;;;5091032;28;20011;-65
2021/12/18 07:26:42;;;;;;;3.23;1.17;;;6.40;99.90;;;;;;5088222;28;20028;-65
2021/12/18 07:29:08;;;;;;;4.47;1.73;;;6.40;99.90;;;;;;5091048;28;20040;-65
2021/12/18 07:31:34;;;;;;;3.75;1.67;;;6.40;99.90;;;;;;5084703;28;20401;-65
2021/12/18 07:34:00;;;;;;;5.47;1.70;;;6.40;99.90;;;;;;5069933;28;20044;-65
2021/12/18 07:36:25;;;;;;;3.53;0.83;;;6.50;99.90;;;;;;5074143;28;20040;-65
2021/12/18 07:38:51;;;;;;;5.83;1.07;;;6.40;99.90;;;;;;5091057;28;20036;-65
2021/12/18 07:41:17;;;;;;;5.10;1.60;;;6.40;99.90;;;;;;5088238;28;20658;-65
2021/12/18 07:43:42;;;;;;;3.20;1.10;;;6.40;99.90;;;;;;5090390;28;20036;-65
2021/12/18 07:46:08;;;;;;;4.90;1.90;;;6.40;99.90;;;;;;5089108;28;20115;-65
2021/12/18 07:48:33;;;;;;;4.50;1.57;;;6.40;99.90;;;;;;5090409;28;20032;-65
2021/12/18 07:50:59;;;;;;;3.97;1.17;;;6.40;99.90;;;;;;5089375;28;20138;-65
2021/12/18 07:53:25;;;;;;;3.57;1.20;;;6.40;99.90;;;;;;5070747;28;20051;-65
2021/12/18 07:55:51;;;;;;;4.80;1.47;;;6.40;99.90;;;;;;5070270;28;20493;-65
2021/12/18 07:58:16;;;;;;;6.10;1.73;;;6.40;99.90;;;;;;5070403;28;20037;-65
2021/12/18 08:00:42;;;;;;;6.77;2.10;;;6.40;99.90;;;;;;5069760;28;20127;-65
2021/12/18 08:03:08;;;;;;;5.93;1.10;;;6.40;99.90;;;;;;5079490;28;20290;-65
2021/12/18 08:05:33;;;;;;;6.43;1.70;;;6.40;99.90;;;;;;5072869;28;20772;-65
2021/12/18 08:07:59;;;;;;;5.82;2.03;;;6.40;99.90;;;;;;5076475;28;20036;-65
2021/12/18 08:10:25;;;;;;;11.30;2.53;;;6.40;99.90;;;;;;5074976;28;20063;-65
2021/12/18 08:12:50;;;;;;;8.07;2.35;;;6.40;99.90;;;;;;5070187;28;20494;-65
2021/12/18 08:15:16;;;;;;;7.83;2.00;;;6.40;99.90;;;;;;5075572;28;20102;-65
2021/12/18 08:17:42;;;;;;;7.33;2.70;;;6.40;99.90;;;;;;5086365;28;20070;-62
2021/12/18 08:20:08;;;;;;;6.77;1.77;;;6.40;99.90;;;;;;5084634;28;20122;-62
2021/12/18 08:22:34;;;;;;;8.75;2.40;;;6.40;99.90;;;;;;5080986;28;20382;-62
2021/12/18 08:25:00;;;;;;;9.10;2.72;;;6.50;99.90;;;;;;5084085;28;20473;-62
2021/12/18 08:27:27;;;;;;;7.20;2.42;;;6.50;99.90;;;;;;5084537;28;20382;-62
2021/12/18 08:29:53;;;;;;;;;;;6.50;99.90;;;;;;5082279;28;20394;-62
2021/12/18 08:32:19;;;;;;;5.65;2.47;;;6.60;99.90;;;;;;5076584;28;19926;-64
2021/12/18 08:34:44;;;;;;;10.30;2.70;;;6.50;99.90;;;;;;5072471;28;20477;-65
2021/12/18 08:37:10;;;;;;;7.53;3.40;;;6.60;99.90;;;;;;5082819;28;20115;-65
2021/12/18 08:39:36;;;;;;;9.75;3.40;;;6.60;99.90;;;;;;5079946;28;20089;-66
2021/12/18 08:42:05;;;;;;;6.87;3.10;;;6.60;99.90;;;;;;5068631;28;20086;-65
2021/12/18 08:44:31;;;;;;;9.88;3.85;;;6.60;99.90;;;;;;5073494;28;20044;-65
2021/12/18 08:46:57;;;;;;;8.98;3.50;;;6.70;99.90;;;;;;5072368;28;20036;-65
2021/12/18 08:49:25;;;;;;;10.18;3.97;;;6.70;99.90;;;;;;5074113;28;20112;-65
2021/12/18 08:51:50;;;;;;;11.57;3.97;;;6.70;99.90;;;;;;5056070;28;20072;-65
2021/12/18 08:54:16;;;;;;;9.00;3.80;;;6.70;99.90;;;;;;5073469;28;20074;-65
2021/12/18 08:56:42;;;;;;;13.82;4.63;;;6.70;99.90;;;;;;5055865;28;20044;-65
2021/12/18 08:59:08;;;;;;;8.38;3.50;;;6.70;99.90;;;;;;5072303;28;20628;-65
2021/12/18 09:01:33;;;;;;;9.33;3.30;;;6.70;99.90;;;;;;5073386;28;20082;-66
2021/12/18 09:03:59;;;;;;;8.50;4.30;;;6.70;99.90;;;;;;5071801;28;20040;-65
2021/12/18 09:06:25;;;;;;;7.68;3.63;;;6.70;99.90;;;;;;5073808;28;20035;-62
2021/12/18 09:08:52;;;;;;;8.52;4.28;;;6.70;99.90;;;;;;5073708;28;20036;-63
2021/12/18 09:11:18;;;;;;;7.30;3.30;;;6.80;99.90;;;;;;5073921;28;20078;-63
2021/12/18 09:13:43;;;;;;;9.68;3.47;;;6.80;99.90;;;;;;5073240;28;20128;-64
2021/12/18 09:16:09;;;;;;;9.38;3.63;;;6.70;99.90;;;;;;5072586;28;20037;-64
2021/12/18 09:18:35;;;;;;;7.85;3.85;;;6.80;99.90;;;;;;5073075;28;20048;-64
2021/12/18 09:21:01;;;;;;;8.73;4.67;;;6.80;99.90;;;;;;5076225;28;20127;-64
2021/12/18 09:23:27;;;;;;;10.73;4.57;;;6.80;99.90;;;;;;5076930;28;20094;-64
2021/12/18 09:25:52;;;;;;;9.30;3.90;;;6.80;99.90;;;;;;5072935;28;20036;-64
2021/12/18 09:28:18;;;;;;;10.03;4.17;;;6.80;99.90;;;;;;5071705;28;20044;-64
2021/12/18 09:30:44;;;;;;;8.40;4.00;;;6.80;99.90;;;;;;5073210;28;20044;-65
2021/12/18 09:33:12;;;;;;;9.63;4.57;;;6.80;99.90;;;;;;5078901;28;20028;-63
2021/12/18 09:35:38;;;;;;;9.80;4.38;;;6.90;99.90;;;;;;5077321;28;20064;-65
2021/12/18 09:38:03;;;;;;;14.15;4.50;;;6.90;99.90;;;;;;5073191;28;20079;-65
2021/12/18 09:40:29;;;;;;;12.75;5.55;;;6.90;99.90;;;;;;5072057;28;20551;-65
2021/12/18 09:42:55;;;;;;;15.75;4.60;;;7.00;99.90;;;;;;5072418;28;20049;-65
2021/12/18 09:45:22;;;;;;;11.30;4.63;;;7.00;99.90;;;;;;5065760;28;20166;-65
2021/12/18 09:47:48;;;;;;;9.65;4.82;;;7.00;99.90;;;;;;5071286;28;20040;-65
2021/12/18 09:50:17;;;;;;;8.63;4.03;;;7.00;99.90;;;;;;5072421;28;20504;-65
2021/12/18 09:52:42;;;;;;;12.18;4.60;;;7.10;99.90;;;;;;5069718;28;20037;-65
2021/12/18 09:55:09;;;;;;;12.03;5.90;;;7.10;99.90;;;;;;5071526;28;20047;-65
2021/12/18 09:57:35;;;;;;;15.45;4.75;;;7.10;99.90;;;;;;5074514;28;20574;-65
2021/12/18 10:00:01;;;;;;;10.18;4.40;;;7.20;99.90;;;;;;5072548;28;20080;-65
2021/12/18 10:02:27;;;;;;;14.98;6.43;;;7.20;99.90;;;;;;5072135;28;20408;-65
2021/12/18 10:04:52;;;;;;;13.13;5.93;;;7.20;99.90;;;;;;5072776;28;20033;-65
2021/12/18 10:07:19;;;;;;;12.10;5.10;;;7.20;99.90;;;;;;5072385;28;20521;-65
2021/12/18 10:09:46;;;;;;;14.95;6.22;;;7.30;99.90;;;;;;5072277;28;20032;-66
2021/12/18 10:12:17;;;;;;;19.38;6.18;;;7.30;99.90;;;;;;5072196;28;20119;-65
2021/12/18 10:15:00;;;;;;;16.33;6.32;;;7.30;99.90;;;;;;5070784;28;20496;-65
2021/12/18 10:17:36;;;;;;;19.25;6.00;;;7.30;99.90;;;;;;5072403;28;20119;-65
2021/12/18 10:20:11;;;;;;;18.33;6.50;;;7.40;99.90;;;;;;5074880;28;21340;-65
2021/12/18 10:22:55;;;;;;;19.27;6.32;;;7.40;99.90;;;;;;5081669;28;20079;-65
2021/12/18 10:25:26;;;;;;;17.15;6.60;;;7.40;99.90;;;;;;5087555;28;20043;-65
2021/12/18 10:28:02;;;;;;;16.35;6.60;;;7.50;99.90;;;;;;5068070;28;20047;-65
2021/12/18 10:30:28;;;;;;;20.55;7.65;;;7.50;99.90;;;;;;5086519;28;20044;-65
2021/12/18 10:33:11;;;;;;;17.70;6.63;;;7.60;99.90;;;;;;5067811;28;20111;-65
2021/12/18 10:35:40;;;;;;;18.95;6.65;;;7.60;99.90;;;;;;5082549;28;20405;-65
2021/12/18 10:38:05;;;;;;;20.75;6.93;;;7.60;99.90;;;;;;5076676;28;20048;-65
2021/12/18 10:40:44;;;;;;;17.87;7.10;;;7.60;99.90;;;;;;5054458;28;20047;-64
2021/12/18 10:43:11;;;;;;;26.23;7.22;;;7.70;99.90;;;;;;5088277;28;20062;-63
2021/12/18 10:45:36;;;;;;;20.20;7.10;;;7.70;99.90;;;;;;5073132;28;20040;-64
2021/12/18 10:48:28;;;;;;;16.52;6.88;;;7.80;99.90;;;;;;5083186;28;20029;-64
2021/12/18 10:50:54;;;;;;;22.45;6.35;;;7.80;99.90;;;;;;5066458;28;20049;-64
2021/12/18 10:53:24;;;;;;;19.80;7.43;;;7.80;99.90;;;;;;5069898;28;20037;-64
2021/12/18 10:55:56;;;;;;;21.48;7.55;;;7.90;99.90;;;;;;5071198;28;20037;-65
2021/12/18 10:58:26;;;;;;;21.88;6.53;;;7.90;99.90;;;;;;5074704;28;20046;-64
2021/12/18 11:01:09;;;;;;;23.52;8.00;;;7.90;99.90;;;;;;5064776;28;20189;-65
2021/12/18 11:03:38;;;;;;;15.80;6.93;;;7.90;99.90;;;;;;5072532;28;20044;-65
2021/12/18 11:06:13;;;;;;;20.58;7.72;;;8.00;99.90;;;;;;5070129;28;20064;-64
2021/12/18 11:09:06;;;;;;;153.65;18.10;;;8.00;99.90;;;;;;5078007;28;20036;-64
2021/12/18 11:14:16;;;;;;;12.63;5.63;;;8.00;99.90;;;;;;5069787;28;20459;-64
2021/12/18 11:16:44;;;;;;;15.07;5.00;;;8.10;99.90;;;;;;5070797;28;20041;-65
2021/12/18 11:19:13;;;;;;;12.40;4.97;;;8.10;99.90;;;;;;5069778;28;20044;-65
2021/12/18 11:21:42;;;;;;;14.05;4.95;;;8.20;99.90;;;;;;5069689;28;20102;-65
2021/12/18 11:24:09;;;;;;;11.38;5.13;;;8.20;99.90;;;;;;5054656;28;20040;-65
2021/12/18 11:26:44;;;;;;;10.75;4.00;;;8.20;99.90;;;;;;5077055;28;20040;-64
2021/12/18 11:29:19;;;;;;;26.58;5.72;;;8.30;99.90;;;;;;5068515;28;20028;-65
2021/12/18 11:31:46;;;;;;;70.75;9.77;;;8.30;99.90;;;;;;5059781;28;20036;-65
2021/12/18 11:34:12;;;;;;;50.78;10.18;;;8.30;99.90;;;;;;5075495;28;20139;-64
2021/12/18 11:36:41;;;;;;;22.92;4.10;;;8.30;99.90;;;;;;5069486;28;20044;-64
2021/12/18 11:39:09;;;;;;;10.25;4.30;;;8.40;99.90;;;;;;5078975;28;20093;-65
2021/12/18 11:41:35;;;;;;;11.98;3.50;;;8.40;99.90;;;;;;5080633;28;20040;-65
2021/12/18 11:44:03;;;;;;;10.02;3.40;;;8.40;99.90;;;;;;5077049;28;20043;-65
2021/12/18 11:46:30;;;;;;;14.10;3.28;;;8.50;99.90;;;;;;5090235;28;20046;-65
2021/12/18 11:49:06;;;;;;;10.63;3.25;;;8.50;99.90;;;;;;5074848;28;20531;-64
2021/12/18 11:51:32;;;;;;;12.05;3.83;;;8.50;99.90;;;;;;5081342;28;20043;-62
2021/12/18 11:54:02;;;;;;;10.02;3.17;;;8.50;99.90;;;;;;5083179;28;20024;-63
2021/12/18 11:56:46;;;;;;;7.57;2.60;;;8.60;99.90;;;;;;5068810;28;20047;-63
2021/12/18 11:59:12;;;;;;;12.40;2.10;;;8.60;99.90;;;;;;5073860;28;20439;-64
2021/12/18 12:01:45;;;;;;;10.88;2.88;;;8.60;99.90;;;;;;5079932;28;20443;-63
2021/12/18 12:04:11;;;;;;;8.60;2.08;;;8.60;99.90;;;;;;5081238;28;20047;-63
2021/12/18 12:06:41;;;;;;;16.00;3.95;;;8.60;99.90;;;;;;5089784;28;20043;-65
2021/12/18 12:09:32;;;;;;;5.90;2.40;;;8.70;99.90;;;;;;5085657;28;20416;-66
2021/12/18 12:11:59;;;;;;;6.03;2.55;;;8.70;99.90;;;;;;5042112;28;20036;-66
2021/12/18 12:14:30;;;;;;;11.30;3.10;;;8.70;99.90;;;;;;5072314;28;20067;-66
2021/12/18 12:17:07;;;;;;;8.68;2.17;;;8.70;99.90;;;;;;5065589;28;20060;-66
2021/12/18 12:19:36;;;;;;;7.03;2.15;;;8.70;99.90;;;;;;5066475;28;20050;-67
2021/12/18 12:22:05;;;;;;;6.30;2.60;;;8.70;99.90;;;;;;5066027;28;20040;-66
2021/12/18 12:24:52;;;;;;;10.43;3.05;;;8.70;99.90;;;;;;5066328;28;20045;-66
2021/12/18 12:27:31;;;;;;;11.48;2.85;;;8.70;99.90;;;;;;5064219;28;20115;-66
2021/12/18 12:29:58;;;;;;;8.55;2.35;;;8.70;99.90;;;;;;5070800;28;20060;-66
2021/12/18 12:32:25;;;;;;;9.43;2.25;;;8.70;99.90;;;;;;5070146;28;20171;-65
2021/12/18 12:35:08;;;;;;;6.80;1.92;;;8.80;99.90;;;;;;5067930;28;20460;-66
2021/12/18 12:37:35;;;;;;;5.18;2.40;;;8.80;99.90;;;;;;5065764;28;20516;-66
2021/12/18 12:40:06;;;;;;;9.07;2.65;;;8.80;99.90;;;;;;5070774;28;20041;-66
2021/12/18 12:42:32;;;;;;;10.85;3.17;;;8.80;99.90;;;;;;5055685;28;20036;-65
2021/12/18 12:45:09;;;;;;;8.70;2.63;;;8.80;99.90;;;;;;5066848;28;20036;-66
2021/12/18 12:47:35;;;;;;;5.72;3.97;;;8.80;99.90;;;;;;5066676;28;20048;-66
2021/12/18 12:50:12;;;;;;;7.82;3.22;;;8.80;99.90;;;;;;5066023;28;20035;-66
2021/12/18 12:52:57;;;;;;;5.78;2.90;;;8.90;99.90;;;;;;5071369;28;20056;-66
2021/12/18 12:55:31;;;;;;;9.70;2.97;;;8.90;99.90;;;;;;5066301;28;20529;-66
2021/12/18 12:58:01;;;;;;;7.22;3.53;;;8.90;99.90;;;;;;5074893;28;20033;-66
2021/12/18 13:00:27;;;;;;;10.57;3.88;;;8.90;99.90;;;;;;5064525;28;20240;-66
2021/12/18 13:02:52;;;;;;;6.30;3.07;;;8.90;99.90;;;;;;5071961;28;20036;-66
2021/12/18 13:05:19;;;;;;;9.07;3.53;;;8.90;99.90;;;;;;5064186;28;20509;-65
2021/12/18 13:07:50;;;;;;;5.65;2.60;;;8.90;99.90;;;;;;5074251;28;20112;-66
2021/12/18 13:10:23;;;;;;;7.35;3.15;;;8.90;99.90;;;;;;5079838;28;20037;-65
2021/12/18 13:13:07;;;;;;;9.60;2.60;;;8.90;99.90;;;;;;5071871;28;20527;-66
2021/12/18 13:16:10;;;;;;;8.40;3.00;;;8.90;99.90;;;;;;5078029;28;20105;-66
2021/12/18 13:18:50;;;;;;;7.28;3.00;;;8.90;99.90;;;;;;5033419;28;20052;-66
2021/12/18 13:21:31;;;;;;;8.13;3.25;;;8.90;99.90;;;;;;5067954;28;20044;-66
2021/12/18 13:24:05;;;;;;;7.80;2.97;;;8.90;99.90;;;;;;5078823;28;20046;-66
2021/12/18 13:26:32;;;;;;;6.30;2.58;;;8.90;99.90;;;;;;5072897;28;20448;-66
2021/12/18 13:29:02;;;;;;;8.50;3.70;;;8.90;99.90;;;;;;5082449;28;20040;-66
2021/12/18 13:31:31;;;;;;;7.97;2.65;;;8.90;99.90;;;;;;5072095;28;20389;-66
2021/12/18 13:34:18;;;;;;;8.18;2.65;;;8.90;99.90;;;;;;5071501;28;20119;-66
2021/12/18 13:36:55;;;;;;;5.47;2.45;;;8.90;99.90;;;;;;5051910;28;20043;-66
2021/12/18 13:39:24;;;;;;;6.53;2.00;;;8.90;99.90;;;;;;5057224;28;20285;-66
2021/12/18 13:42:01;;;;;;;8.57;2.65;;;8.90;99.90;;;;;;5073059;28;20400;-66
2021/12/18 13:44:57;;;;;;;3.47;2.30;;;8.90;99.90;;;;;;5071530;28;20094;-65
2021/12/18 13:47:38;;;;;;;3.83;2.53;;;8.90;99.90;;;;;;5043665;28;20471;-66
2021/12/18 13:50:19;;;;;;;3.75;2.13;;;8.90;99.90;;;;;;5076349;28;20040;-66
2021/12/18 13:53:02;;;;;;;5.75;2.15;;;8.90;99.90;;;;;;5089281;28;20047;-65